Latest Coastal Weather Observations for Frederick Reef

IDQ60701

Issued at 4:21 am EST Monday 5 December 2016 (issued every 10 minutes, with the page automatically refreshed every 10 minutes)

About coastal observations | Map of coastal stations | Coastal observations for QLD | Marine services | Other Formats
Station Details ID: 200701 Name: FREDERICK REEF Lat: -20.94 Lon: 154.40 Height: 4.9 m
Data from the previous 72 hours. | See also: Recent months for locations in Queensland
Date/Time
EST
Temp
°C
Wind Pressure Rain since
9am
mm
Weather Cloud Vis
km
Sea
Height
m
Swell
Dir  Spd
kts
Gust
kts
hPa Trend Height
m
Period
s
Dir
05/04:00am 24.9 E 1 - 1013.5 - - - - - - - - -
05/03:00am 24.9 E 1 - 1013.4 - - - - - - - - -
05/02:00am 25.2 E 1 - 1013.6 - - - - - - - - -
05/01:00am 25.0 E 1 - 1014.3 - - - - - - - - -
05/12:00am 25.2 E 1 3 1014.8 - - - - - - - - -
 
Date/Time
EST
Temp
°C
Wind Pressure Rain since
9am
mm
Weather Cloud Vis
km
Sea
Height
m
Swell
Dir  Spd
kts
Gust
kts
hPa Trend Height
m
Period
s
Dir
04/11:30pm 25.3 E 1 3 1015.1 - - - - - - - - -
04/11:00pm 25.2 E 1 3 1015.1 - - - - - - - - -
04/10:30pm 25.2 ESE 1 3 1015.4 - - - - - - - - -
04/10:00pm 25.1 E 1 3 1015.2 - - - - - - - - -
04/09:30pm 25.3 ESE 1 3 1015.4 - - - - - - - - -
04/09:00pm 25.0 ESE 1 3 1015.0 - - - - - - - - -
04/08:30pm 25.3 ESE 1 3 1014.9 - - - - - - - - -
04/08:00pm 25.3 ESE 1 3 1014.8 - - - - - - - - -
04/07:30pm 25.4 SE 1 3 1014.7 - - - - - - - - -
04/07:00pm 25.1 SE 1 3 1014.2 - - - - - - - - -
04/06:30pm 25.3 SE 1 3 1014.1 - - - - - - - - -
04/06:00pm 25.4 SE 15 17 1013.9 - - - - - - - - -
04/05:30pm 25.5 SE 13 15 1013.7 - - - - - - - - -
04/05:00pm 25.6 SE 13 15 1013.3 - - - - - - - - -
04/04:30pm 25.3 ESE 13 15 1013.1 - - - - - - - - -
04/04:00pm 25.2 ESE 12 14 1012.9 - - - - - - - - -
04/03:30pm 25.7 ESE 12 14 1013.1 - - - - - - - - -
04/03:00pm 25.2 ESE 12 13 1013.1 - - - - - - - - -
04/02:30pm 25.4 E 12 14 1013.4 - - - - - - - - -
04/02:00pm 25.3 E 12 14 1013.5 - - - - - - - - -
04/01:30pm 25.2 E 14 15 1013.9 - - - - - - - - -
04/01:00pm 25.3 E 14 17 1014.1 - - - - - - - - -
04/12:30pm 25.4 E 15 17 1014.4 - - - - - - - - -
04/12:00pm 25.5 E 14 16 1014.6 - - - - - - - - -
04/11:30am 25.4 E 14 16 1015.1 - - - - - - - - -
04/11:00am 25.5 E 14 17 1015.2 - - - - - - - - -
04/10:30am 25.8 E 14 16 1015.6 - - - - - - - - -
04/10:00am 25.3 E 16 - 1015.7 - - - - - - - - -
04/09:30am 25.5 E 16 18 1016.0 - - - - - - - - -
04/09:00am 25.8 E 15 19 1015.8 - - - - - - - - -
04/08:30am 25.7 ENE 16 19 1015.4 - - - - - - - - -
04/08:00am 25.7 ENE 16 19 1015.3 - - - - - - - - -
04/07:30am 25.5 E 17 20 1015.4 - - - - - - - - -
04/07:00am 25.2 E 17 19 1015.3 - - - - - - - - -
04/06:30am 25.7 ENE 16 19 1014.9 - - - - - - - - -
04/06:00am 25.3 E 17 - 1015.1 - - - - - - - - -
04/05:00am 25.0 E 17 - 1014.8 - - - - - - - - -
04/04:00am 24.9 ESE 1 - 1015.2 - - - - - - - - -
04/03:00am 25.3 ESE 1 - 1014.9 - - - - - - - - -
04/02:00am 25.0 E 1 - 1014.3 - - - - - - - - -
04/01:00am 25.0 E 1 - 1014.9 - - - - - - - - -
04/12:00am 25.2 E 1 3 1015.5 - - - - - - - - -
 
Date/Time
EST
Temp
°C
Wind Pressure Rain since
9am
mm
Weather Cloud Vis
km
Sea
Height
m
Swell
Dir  Spd
kts
Gust
kts
hPa Trend Height
m
Period
s
Dir
03/11:30pm 25.3 CALM 0 3 1015.8 - - - - - - - - -
03/11:00pm 25.4 CALM 0 3 1015.7 - - - - - - - - -
03/10:30pm 25.4 E 1 3 1015.6 - - - - - - - - -
03/10:00pm 25.6 CALM 0 - 1015.3 - - - - - - - - -
03/09:30pm 25.5 CALM 0 3 1015.2 - - - - - - - - -
03/09:00pm 25.5 E 1 - 1014.9 - - - - - - - - -
03/08:00pm 25.7 E 1 3 1014.5 - - - - - - - - -
03/07:30pm 25.7 E 1 3 1014.5 - - - - - - - - -
03/07:00pm 25.7 E 1 3 1014.2 - - - - - - - - -
03/06:30pm 25.6 ESE 1 3 1014.2 - - - - - - - - -
03/06:00pm 25.8 ESE 2 16 1014.0 - - - - - - - - -
03/05:30pm 25.6 ESE 15 17 1013.9 - - - - - - - - -
03/05:00pm 25.7 ESE 15 17 1013.6 - - - - - - - - -
03/04:30pm 25.7 ESE 14 16 1013.4 - - - - - - - - -
03/04:00pm 25.9 ESE 14 16 1012.9 - - - - - - - - -
03/03:30pm 25.8 E 12 14 1013.0 - - - - - - - - -
03/03:00pm 25.9 ESE 13 14 1013.1 - - - - - - - - -
03/02:30pm 25.9 ESE 13 14 1013.5 - - - - - - - - -
03/02:00pm 25.9 ESE 12 15 1013.7 - - - - - - - - -
03/01:30pm 25.8 ESE 13 14 1013.9 - - - - - - - - -
03/01:00pm 25.7 E 13 15 1013.8 - - - - - - - - -
03/12:30pm 25.7 E 13 15 1014.2 - - - - - - - - -
03/12:00pm 25.8 E 13 15 1014.2 - - - - - - - - -
03/11:30am 25.9 E 14 16 1014.7 - - - - - - - - -
03/11:00am 25.7 E 14 17 1014.7 - - - - - - - - -
03/10:30am 25.5 E 14 16 1015.1 - - - - - - - - -
03/10:00am 25.9 E 13 16 1015.2 - - - - - - - - -
03/09:30am 25.8 E 13 16 1015.5 - - - - - - - - -
03/09:00am 25.8 E 14 17 1015.3 - - - - - - - - -
03/08:30am 25.7 E 14 17 1015.2 - - - - - - - - -
03/08:00am 25.6 E 15 17 1015.0 - - - - - - - - -
03/07:30am 25.9 E 14 16 1014.9 - - - - - - - - -
03/07:00am 25.7 E 15 17 1014.6 - - - - - - - - -
03/06:30am 25.8 E 14 16 1014.4 - - - - - - - - -
03/06:00am 25.8 E 14 16 1014.0 - - - - - - - - -
03/05:00am 25.0 E 13 - 1013.1 - - - - - - - - -
03/04:00am 25.1 E 1 - 1012.5 - - - - - - - - -
03/03:00am 25.5 E 1 - 1012.2 - - - - - - - - -
03/02:00am 25.2 E 1 - 1012.6 - - - - - - - - -
03/01:30am 25.2 CALM 0 2 1013.1 - - - - - - - - -
03/01:00am 25.2 CALM 0 2 1013.2 - - - - - - - - -
03/12:30am 25.3 CALM 0 3 1013.7 - - - - - - - - -
03/12:00am 25.1 CALM 0 2 1013.8 - - - - - - - - -
 
Date/Time
EST
Temp
°C
Wind Pressure Rain since
9am
mm
Weather Cloud Vis
km
Sea
Height
m
Swell
Dir  Spd
kts
Gust
kts
hPa Trend Height
m
Period
s
Dir
02/11:30pm 25.2 CALM 0 2 1014.2 - - - - - - - - -
02/11:00pm 25.3 CALM 0 2 1014.3 - - - - - - - - -
02/10:30pm 25.7 CALM 0 2 1014.8 - - - - - - - - -
02/10:00pm 25.6 CALM 0 2 1014.5 - - - - - - - - -
02/09:30pm 25.4 CALM 0 2 1014.9 - - - - - - - - -
02/09:00pm 25.3 CALM 0 2 1014.7 - - - - - - - - -
02/08:30pm 25.5 ENE 1 3 1014.5 - - - - - - - - -
02/08:00pm 25.5 CALM 0 3 1014.3 - - - - - - - - -
02/07:30pm 25.6 CALM 0 2 1014.1 - - - - - - - - -
02/07:00pm 25.4 CALM 0 2 1013.8 - - - - - - - - -
02/06:30pm 25.5 E 1 3 1013.6 - - - - - - - - -
02/06:00pm 25.4 ESE 1 3 1013.3 - - - - - - - - -
02/05:30pm 25.7 ESE 9 11 1013.1 - - - - - - - - -
02/05:00pm 25.6 ESE 8 10 1012.7 - - - - - - - - -
02/04:30pm 25.4 SE 9 11 1012.5 - - - - - - - - -
02/04:00pm 25.4 SE 9 11 1012.3 - - - - - - - - -
02/03:30pm 25.4 CALM 0 2 1012.5 - - - - - - - - -
02/03:00pm 25.3 ESE 9 10 1012.4 - - - - - - - - -
02/02:30pm 25.4 ESE 1 11 1012.6 - - - - - - - - -
02/02:00pm 25.3 CALM 0 2 1012.6 - - - - - - - - -
02/01:30pm 25.2 CALM 0 2 1013.0 - - - - - - - - -
02/01:00pm 25.2 CALM 0 3 1012.9 - - - - - - - - -
02/12:30pm 25.1 CALM 0 2 1013.1 - - - - - - - - -
02/12:00pm 25.1 CALM 0 - 1013.2 - - - - - - - - -
02/11:00am 25.0 CALM 0 - 1013.7 - - - - - - - - -
02/10:00am 25.1 ESE 1 - 1013.8 - - - - - - - - -
02/09:00am 25.2 E 6 - 1013.8 - - - - - - - - -
02/08:00am 25.0 E 8 - 1013.6 - - - - - - - - -
02/07:00am 25.3 E 9 - 1013.2 - - - - - - - - -
02/06:00am 25.0 E 11 - 1012.6 - - - - - - - - -
02/05:00am 24.4 E 12 - 1011.7 - - - - - - - - -

Other Formats:

Comma delimited format used in spreadsheet applications
http://www.bom.gov.au/fwo/IDQ60701/IDQ60701.94393.axf

JavaScript Object Notation format (JSON) in row-major order
http://www.bom.gov.au/fwo/IDQ60701/IDQ60701.94393.json